sensor_id;sensor_type;location;lat;lon;timestamp;P1;durP1;ratioP1;P2;durP2;ratioP2
75649;SDS011;64245;51.282;22.494;2023-03-01T00:01:23;108.82;;;33.75;;
75649;SDS011;64245;51.282;22.494;2023-03-01T00:03:51;104.30;;;33.25;;
75649;SDS011;64245;51.282;22.494;2023-03-01T00:06:18;92.38;;;33.97;;
75649;SDS011;64245;51.282;22.494;2023-03-01T00:08:44;93.05;;;30.23;;
75649;SDS011;64245;51.282;22.494;2023-03-01T00:11:12;91.63;;;31.35;;
75649;SDS011;64245;51.282;22.494;2023-03-01T00:13:40;76.80;;;26.10;;
75649;SDS011;64245;51.282;22.494;2023-03-01T00:16:07;64.18;;;26.83;;
75649;SDS011;64245;51.282;22.494;2023-03-01T00:18:35;81.70;;;27.55;;
75649;SDS011;64245;51.282;22.494;2023-03-01T00:21:01;81.10;;;28.45;;
75649;SDS011;64245;51.282;22.494;2023-03-01T00:23:27;84.65;;;32.20;;
75649;SDS011;64245;51.282;22.494;2023-03-01T00:25:53;87.38;;;32.25;;
75649;SDS011;64245;51.282;22.494;2023-03-01T00:28:19;79.80;;;26.67;;
75649;SDS011;64245;51.282;22.494;2023-03-01T00:30:44;77.97;;;29.60;;
75649;SDS011;64245;51.282;22.494;2023-03-01T00:33:11;82.57;;;29.25;;
75649;SDS011;64245;51.282;22.494;2023-03-01T00:35:36;88.10;;;27.55;;
75649;SDS011;64245;51.282;22.494;2023-03-01T00:38:02;71.05;;;26.75;;
75649;SDS011;64245;51.282;22.494;2023-03-01T00:40:30;72.22;;;27.02;;
75649;SDS011;64245;51.282;22.494;2023-03-01T00:45:23;63.15;;;22.55;;
75649;SDS011;64245;51.282;22.494;2023-03-01T00:47:50;62.25;;;22.08;;
75649;SDS011;64245;51.282;22.494;2023-03-01T00:50:16;63.55;;;24.83;;
75649;SDS011;64245;51.282;22.494;2023-03-01T00:52:43;67.72;;;22.88;;
75649;SDS011;64245;51.282;22.494;2023-03-01T00:55:09;53.08;;;21.38;;
75649;SDS011;64245;51.282;22.494;2023-03-01T00:57:36;57.15;;;19.90;;
75649;SDS011;64245;51.282;22.494;2023-03-01T01:00:02;54.10;;;20.17;;
75649;SDS011;64245;51.282;22.494;2023-03-01T01:02:29;49.58;;;18.70;;
75649;SDS011;64245;51.282;22.494;2023-03-01T01:04:57;54.35;;;19.67;;
75649;SDS011;64245;51.282;22.494;2023-03-01T01:07:23;54.20;;;20.27;;
75649;SDS011;64245;51.282;22.494;2023-03-01T01:09:49;53.50;;;18.73;;
75649;SDS011;64245;51.282;22.494;2023-03-01T01:12:15;58.83;;;20.85;;
75649;SDS011;64245;51.282;22.494;2023-03-01T01:14:40;52.30;;;19.35;;
75649;SDS011;64245;51.282;22.494;2023-03-01T01:17:06;60.50;;;22.20;;
75649;SDS011;64245;51.282;22.494;2023-03-01T01:19:31;58.70;;;20.08;;
75649;SDS011;64245;51.282;22.494;2023-03-01T01:21:57;53.20;;;21.20;;
75649;SDS011;64245;51.282;22.494;2023-03-01T01:24:23;48.95;;;19.52;;
75649;SDS011;64245;51.282;22.494;2023-03-01T01:26:49;58.85;;;19.25;;
75649;SDS011;64245;51.282;22.494;2023-03-01T01:29:14;48.28;;;18.92;;
75649;SDS011;64245;51.282;22.494;2023-03-01T01:31:41;57.08;;;20.17;;
75649;SDS011;64245;51.282;22.494;2023-03-01T01:34:08;49.30;;;19.90;;
75649;SDS011;64245;51.282;22.494;2023-03-01T01:36:37;62.13;;;20.30;;
75649;SDS011;64245;51.282;22.494;2023-03-01T01:39:03;52.75;;;20.20;;
75649;SDS011;64245;51.282;22.494;2023-03-01T01:41:29;57.15;;;19.17;;
75649;SDS011;64245;51.282;22.494;2023-03-01T01:49:31;46.08;;;18.15;;
75649;SDS011;64245;51.282;22.494;2023-03-01T01:54:43;49.40;;;17.20;;
75649;SDS011;64245;51.282;22.494;2023-03-01T01:57:15;43.53;;;17.60;;
75649;SDS011;64245;51.282;22.494;2023-03-01T01:59:45;48.50;;;18.60;;
75649;SDS011;64245;51.282;22.494;2023-03-01T02:02:17;45.63;;;17.25;;
75649;SDS011;64245;51.282;22.494;2023-03-01T02:04:44;49.55;;;17.35;;
75649;SDS011;64245;51.282;22.494;2023-03-01T02:07:14;54.53;;;19.27;;
75649;SDS011;64245;51.282;22.494;2023-03-01T02:09:44;53.05;;;18.20;;
75649;SDS011;64245;51.282;22.494;2023-03-01T02:12:13;49.22;;;18.38;;
75649;SDS011;64245;51.282;22.494;2023-03-01T02:14:40;46.72;;;17.67;;
75649;SDS011;64245;51.282;22.494;2023-03-01T02:17:06;46.97;;;17.67;;
75649;SDS011;64245;51.282;22.494;2023-03-01T02:19:48;51.20;;;19.63;;
75649;SDS011;64245;51.282;22.494;2023-03-01T02:22:26;51.30;;;18.33;;
75649;SDS011;64245;51.282;22.494;2023-03-01T02:30:01;45.75;;;16.38;;
75649;SDS011;64245;51.282;22.494;2023-03-01T02:32:28;44.33;;;16.90;;
75649;SDS011;64245;51.282;22.494;2023-03-01T02:34:54;48.92;;;17.65;;
75649;SDS011;64245;51.282;22.494;2023-03-01T02:37:21;45.53;;;15.80;;
75649;SDS011;64245;51.282;22.494;2023-03-01T02:42:23;39.35;;;16.33;;
75649;SDS011;64245;51.282;22.494;2023-03-01T02:44:54;40.95;;;16.17;;
75649;SDS011;64245;51.282;22.494;2023-03-01T02:47:20;46.05;;;17.67;;
75649;SDS011;64245;51.282;22.494;2023-03-01T02:49:46;44.60;;;17.48;;
75649;SDS011;64245;51.282;22.494;2023-03-01T02:52:16;36.85;;;15.13;;
75649;SDS011;64245;51.282;22.494;2023-03-01T02:55:11;42.25;;;14.98;;
75649;SDS011;64245;51.282;22.494;2023-03-01T02:57:40;47.55;;;17.25;;
75649;SDS011;64245;51.282;22.494;2023-03-01T03:00:13;30.25;;;11.48;;
75649;SDS011;64245;51.282;22.494;2023-03-01T03:02:47;47.08;;;17.15;;
75649;SDS011;64245;51.282;22.494;2023-03-01T03:05:17;40.03;;;16.10;;
75649;SDS011;64245;51.282;22.494;2023-03-01T03:07:48;47.65;;;17.67;;
75649;SDS011;64245;51.282;22.494;2023-03-01T03:10:18;42.85;;;15.77;;
75649;SDS011;64245;51.282;22.494;2023-03-01T03:15:16;37.17;;;16.23;;
75649;SDS011;64245;51.282;22.494;2023-03-01T03:17:43;42.15;;;17.60;;
75649;SDS011;64245;51.282;22.494;2023-03-01T03:20:09;34.60;;;14.07;;
75649;SDS011;64245;51.282;22.494;2023-03-01T03:22:38;41.78;;;16.17;;
75649;SDS011;64245;51.282;22.494;2023-03-01T03:25:05;41.42;;;17.30;;
75649;SDS011;64245;51.282;22.494;2023-03-01T03:27:39;49.55;;;17.50;;
75649;SDS011;64245;51.282;22.494;2023-03-01T03:30:07;51.25;;;19.02;;
75649;SDS011;64245;51.282;22.494;2023-03-01T03:32:35;48.60;;;17.70;;
75649;SDS011;64245;51.282;22.494;2023-03-01T03:35:02;42.15;;;16.25;;
75649;SDS011;64245;51.282;22.494;2023-03-01T03:37:41;40.67;;;15.98;;
75649;SDS011;64245;51.282;22.494;2023-03-01T03:40:25;37.88;;;15.60;;
75649;SDS011;64245;51.282;22.494;2023-03-01T03:42:53;53.47;;;17.65;;
75649;SDS011;64245;51.282;22.494;2023-03-01T03:45:20;44.67;;;17.40;;
75649;SDS011;64245;51.282;22.494;2023-03-01T03:47:46;43.20;;;17.13;;
75649;SDS011;64245;51.282;22.494;2023-03-01T03:50:12;47.85;;;17.13;;
75649;SDS011;64245;51.282;22.494;2023-03-01T03:52:39;43.65;;;16.35;;
75649;SDS011;64245;51.282;22.494;2023-03-01T03:55:05;43.30;;;15.35;;
75649;SDS011;64245;51.282;22.494;2023-03-01T03:57:37;36.20;;;15.55;;
75649;SDS011;64245;51.282;22.494;2023-03-01T04:00:04;28.65;;;12.23;;
75649;SDS011;64245;51.282;22.494;2023-03-01T04:02:31;38.75;;;18.08;;
75649;SDS011;64245;51.282;22.494;2023-03-01T04:04:56;43.30;;;15.93;;
75649;SDS011;64245;51.282;22.494;2023-03-01T04:07:22;39.60;;;17.02;;
75649;SDS011;64245;51.282;22.494;2023-03-01T04:09:48;41.92;;;15.25;;
75649;SDS011;64245;51.282;22.494;2023-03-01T04:12:13;35.13;;;12.20;;
75649;SDS011;64245;51.282;22.494;2023-03-01T04:14:39;37.63;;;15.23;;
75649;SDS011;64245;51.282;22.494;2023-03-01T04:17:05;41.03;;;16.70;;
75649;SDS011;64245;51.282;22.494;2023-03-01T04:19:31;44.05;;;17.38;;
75649;SDS011;64245;51.282;22.494;2023-03-01T04:22:02;33.15;;;14.63;;
75649;SDS011;64245;51.282;22.494;2023-03-01T04:24:34;43.40;;;16.40;;
75649;SDS011;64245;51.282;22.494;2023-03-01T04:27:01;38.88;;;14.52;;
75649;SDS011;64245;51.282;22.494;2023-03-01T04:29:27;46.55;;;18.33;;
75649;SDS011;64245;51.282;22.494;2023-03-01T04:31:53;52.58;;;21.60;;
75649;SDS011;64245;51.282;22.494;2023-03-01T04:34:19;17.33;;;8.98;;
75649;SDS011;64245;51.282;22.494;2023-03-01T04:36:45;39.78;;;15.13;;
75649;SDS011;64245;51.282;22.494;2023-03-01T04:39:10;45.17;;;16.50;;
75649;SDS011;64245;51.282;22.494;2023-03-01T04:41:39;43.53;;;17.70;;
75649;SDS011;64245;51.282;22.494;2023-03-01T04:44:05;42.08;;;17.52;;
75649;SDS011;64245;51.282;22.494;2023-03-01T04:46:31;43.35;;;18.52;;
75649;SDS011;64245;51.282;22.494;2023-03-01T04:48:57;46.42;;;18.92;;
75649;SDS011;64245;51.282;22.494;2023-03-01T04:51:22;20.17;;;9.95;;
75649;SDS011;64245;51.282;22.494;2023-03-01T04:53:48;46.30;;;17.83;;
75649;SDS011;64245;51.282;22.494;2023-03-01T04:56:14;38.60;;;15.80;;
75649;SDS011;64245;51.282;22.494;2023-03-01T04:58:40;35.05;;;15.07;;
75649;SDS011;64245;51.282;22.494;2023-03-01T05:01:13;44.25;;;16.65;;
75649;SDS011;64245;51.282;22.494;2023-03-01T05:03:42;45.53;;;17.63;;
75649;SDS011;64245;51.282;22.494;2023-03-01T05:06:09;39.45;;;16.67;;
75649;SDS011;64245;51.282;22.494;2023-03-01T05:08:36;45.90;;;17.63;;
75649;SDS011;64245;51.282;22.494;2023-03-01T05:11:03;34.92;;;15.02;;
75649;SDS011;64245;51.282;22.494;2023-03-01T05:13:28;35.78;;;16.10;;
75649;SDS011;64245;51.282;22.494;2023-03-01T05:15:55;22.60;;;10.82;;
75649;SDS011;64245;51.282;22.494;2023-03-01T05:18:25;38.20;;;14.63;;
75649;SDS011;64245;51.282;22.494;2023-03-01T05:20:55;38.95;;;15.40;;
75649;SDS011;64245;51.282;22.494;2023-03-01T05:23:26;26.50;;;11.57;;
75649;SDS011;64245;51.282;22.494;2023-03-01T05:25:52;36.28;;;15.43;;
75649;SDS011;64245;51.282;22.494;2023-03-01T05:28:18;20.90;;;10.85;;
75649;SDS011;64245;51.282;22.494;2023-03-01T05:30:45;39.03;;;15.48;;
75649;SDS011;64245;51.282;22.494;2023-03-01T05:33:11;40.17;;;17.85;;
75649;SDS011;64245;51.282;22.494;2023-03-01T05:35:41;47.08;;;16.88;;
75649;SDS011;64245;51.282;22.494;2023-03-01T05:38:08;45.55;;;16.95;;
75649;SDS011;64245;51.282;22.494;2023-03-01T05:40:39;46.72;;;21.00;;
75649;SDS011;64245;51.282;22.494;2023-03-01T05:43:05;50.40;;;19.00;;
75649;SDS011;64245;51.282;22.494;2023-03-01T05:45:31;40.95;;;15.75;;
75649;SDS011;64245;51.282;22.494;2023-03-01T05:48:00;27.63;;;12.23;;
75649;SDS011;64245;51.282;22.494;2023-03-01T05:50:27;41.75;;;15.48;;
75649;SDS011;64245;51.282;22.494;2023-03-01T05:55:23;44.40;;;17.17;;
75649;SDS011;64245;51.282;22.494;2023-03-01T05:57:48;43.90;;;16.35;;
75649;SDS011;64245;51.282;22.494;2023-03-01T06:00:16;41.25;;;15.23;;
75649;SDS011;64245;51.282;22.494;2023-03-01T06:02:43;34.17;;;14.05;;
75649;SDS011;64245;51.282;22.494;2023-03-01T06:05:10;40.45;;;13.88;;
75649;SDS011;64245;51.282;22.494;2023-03-01T06:07:37;49.10;;;18.02;;
75649;SDS011;64245;51.282;22.494;2023-03-01T06:10:03;46.15;;;19.00;;
75649;SDS011;64245;51.282;22.494;2023-03-01T06:12:31;41.78;;;18.65;;
75649;SDS011;64245;51.282;22.494;2023-03-01T06:14:57;37.42;;;16.17;;
75649;SDS011;64245;51.282;22.494;2023-03-01T06:17:22;50.13;;;17.33;;
75649;SDS011;64245;51.282;22.494;2023-03-01T06:19:48;41.55;;;17.20;;
75649;SDS011;64245;51.282;22.494;2023-03-01T06:22:14;48.25;;;18.27;;
75649;SDS011;64245;51.282;22.494;2023-03-01T06:24:39;33.50;;;12.63;;
75649;SDS011;64245;51.282;22.494;2023-03-01T06:27:05;23.65;;;12.10;;
75649;SDS011;64245;51.282;22.494;2023-03-01T06:29:31;33.85;;;14.23;;
75649;SDS011;64245;51.282;22.494;2023-03-01T06:31:56;44.90;;;17.70;;
75649;SDS011;64245;51.282;22.494;2023-03-01T06:34:22;48.97;;;20.27;;
75649;SDS011;64245;51.282;22.494;2023-03-01T06:36:47;53.22;;;20.77;;
75649;SDS011;64245;51.282;22.494;2023-03-01T06:39:13;35.78;;;16.42;;
75649;SDS011;64245;51.282;22.494;2023-03-01T06:41:38;40.92;;;15.93;;
75649;SDS011;64245;51.282;22.494;2023-03-01T06:44:04;53.45;;;21.08;;
75649;SDS011;64245;51.282;22.494;2023-03-01T06:46:30;33.92;;;13.43;;
75649;SDS011;64245;51.282;22.494;2023-03-01T06:48:56;37.72;;;17.10;;
75649;SDS011;64245;51.282;22.494;2023-03-01T06:51:21;20.58;;;10.43;;
75649;SDS011;64245;51.282;22.494;2023-03-01T06:53:47;33.28;;;16.80;;
75649;SDS011;64245;51.282;22.494;2023-03-01T06:56:12;23.02;;;12.68;;
75649;SDS011;64245;51.282;22.494;2023-03-01T06:58:38;31.40;;;11.32;;
75649;SDS011;64245;51.282;22.494;2023-03-01T07:01:07;46.60;;;17.30;;
75649;SDS011;64245;51.282;22.494;2023-03-01T07:03:34;42.97;;;16.83;;
75649;SDS011;64245;51.282;22.494;2023-03-01T07:05:59;43.05;;;16.83;;
75649;SDS011;64245;51.282;22.494;2023-03-01T07:08:25;46.15;;;18.27;;
75649;SDS011;64245;51.282;22.494;2023-03-01T07:10:57;40.60;;;16.85;;
75649;SDS011;64245;51.282;22.494;2023-03-01T07:13:23;37.40;;;16.00;;
75649;SDS011;64245;51.282;22.494;2023-03-01T07:15:49;43.80;;;17.52;;
75649;SDS011;64245;51.282;22.494;2023-03-01T07:18:15;42.72;;;17.30;;
75649;SDS011;64245;51.282;22.494;2023-03-01T07:20:40;36.83;;;18.35;;
75649;SDS011;64245;51.282;22.494;2023-03-01T07:23:06;20.65;;;10.40;;
75649;SDS011;64245;51.282;22.494;2023-03-01T07:25:32;39.90;;;14.43;;
75649;SDS011;64245;51.282;22.494;2023-03-01T07:27:58;34.83;;;15.32;;
75649;SDS011;64245;51.282;22.494;2023-03-01T07:30:23;37.45;;;16.02;;
75649;SDS011;64245;51.282;22.494;2023-03-01T07:35:18;29.83;;;14.73;;
75649;SDS011;64245;51.282;22.494;2023-03-01T07:37:44;44.13;;;16.95;;
75649;SDS011;64245;51.282;22.494;2023-03-01T07:40:10;32.97;;;13.68;;
75649;SDS011;64245;51.282;22.494;2023-03-01T07:42:36;27.92;;;12.20;;
75649;SDS011;64245;51.282;22.494;2023-03-01T07:45:02;29.48;;;12.88;;
75649;SDS011;64245;51.282;22.494;2023-03-01T07:47:29;32.83;;;14.85;;
75649;SDS011;64245;51.282;22.494;2023-03-01T07:49:54;24.38;;;11.80;;
75649;SDS011;64245;51.282;22.494;2023-03-01T07:52:23;24.10;;;11.35;;
75649;SDS011;64245;51.282;22.494;2023-03-01T07:54:49;32.90;;;12.68;;
75649;SDS011;64245;51.282;22.494;2023-03-01T07:57:15;20.80;;;9.40;;
75649;SDS011;64245;51.282;22.494;2023-03-01T07:59:40;26.25;;;11.88;;
75649;SDS011;64245;51.282;22.494;2023-03-01T08:02:06;26.58;;;10.95;;
75649;SDS011;64245;51.282;22.494;2023-03-01T08:04:32;30.35;;;13.95;;
75649;SDS011;64245;51.282;22.494;2023-03-01T08:06:58;28.77;;;13.18;;
75649;SDS011;64245;51.282;22.494;2023-03-01T08:09:24;25.58;;;8.80;;
75649;SDS011;64245;51.282;22.494;2023-03-01T08:11:50;18.38;;;9.70;;
75649;SDS011;64245;51.282;22.494;2023-03-01T08:14:15;33.20;;;13.20;;
75649;SDS011;64245;51.282;22.494;2023-03-01T08:16:41;28.65;;;10.85;;
75649;SDS011;64245;51.282;22.494;2023-03-01T08:19:10;28.02;;;11.70;;
75649;SDS011;64245;51.282;22.494;2023-03-01T08:21:37;12.25;;;5.32;;
75649;SDS011;64245;51.282;22.494;2023-03-01T08:24:03;20.50;;;9.85;;
75649;SDS011;64245;51.282;22.494;2023-03-01T08:26:31;24.80;;;12.60;;
75649;SDS011;64245;51.282;22.494;2023-03-01T08:28:59;15.68;;;7.18;;
75649;SDS011;64245;51.282;22.494;2023-03-01T08:31:27;13.75;;;5.90;;
75649;SDS011;64245;51.282;22.494;2023-03-01T08:33:56;17.08;;;8.35;;
75649;SDS011;64245;51.282;22.494;2023-03-01T08:36:25;14.18;;;6.70;;
75649;SDS011;64245;51.282;22.494;2023-03-01T08:38:59;18.50;;;8.90;;
75649;SDS011;64245;51.282;22.494;2023-03-01T08:41:26;25.63;;;9.07;;
75649;SDS011;64245;51.282;22.494;2023-03-01T08:43:52;27.13;;;10.30;;
75649;SDS011;64245;51.282;22.494;2023-03-01T08:46:27;22.25;;;9.77;;
75649;SDS011;64245;51.282;22.494;2023-03-01T08:49:06;29.50;;;13.40;;
75649;SDS011;64245;51.282;22.494;2023-03-01T08:51:34;20.45;;;11.20;;
75649;SDS011;64245;51.282;22.494;2023-03-01T08:54:05;26.02;;;12.15;;
75649;SDS011;64245;51.282;22.494;2023-03-01T08:56:33;24.00;;;10.32;;
75649;SDS011;64245;51.282;22.494;2023-03-01T08:58:59;22.77;;;9.60;;
75649;SDS011;64245;51.282;22.494;2023-03-01T09:01:25;30.15;;;13.30;;
75649;SDS011;64245;51.282;22.494;2023-03-01T09:03:50;30.80;;;13.27;;
75649;SDS011;64245;51.282;22.494;2023-03-01T09:06:17;28.35;;;13.02;;
75649;SDS011;64245;51.282;22.494;2023-03-01T09:08:43;21.17;;;10.15;;
75649;SDS011;64245;51.282;22.494;2023-03-01T09:11:11;25.42;;;12.73;;
75649;SDS011;64245;51.282;22.494;2023-03-01T09:13:40;26.90;;;11.73;;
75649;SDS011;64245;51.282;22.494;2023-03-01T09:16:07;31.25;;;15.70;;
75649;SDS011;64245;51.282;22.494;2023-03-01T09:18:33;26.92;;;13.07;;
75649;SDS011;64245;51.282;22.494;2023-03-01T09:21:00;21.35;;;10.45;;
75649;SDS011;64245;51.282;22.494;2023-03-01T09:23:34;25.65;;;12.02;;
75649;SDS011;64245;51.282;22.494;2023-03-01T09:26:02;22.98;;;10.45;;
75649;SDS011;64245;51.282;22.494;2023-03-01T09:28:28;24.77;;;10.27;;
75649;SDS011;64245;51.282;22.494;2023-03-01T09:30:57;24.70;;;10.88;;
75649;SDS011;64245;51.282;22.494;2023-03-01T09:33:24;17.15;;;9.30;;
75649;SDS011;64245;51.282;22.494;2023-03-01T09:35:55;20.67;;;9.15;;
75649;SDS011;64245;51.282;22.494;2023-03-01T09:38:24;20.58;;;9.52;;
75649;SDS011;64245;51.282;22.494;2023-03-01T09:40:51;26.95;;;11.13;;
75649;SDS011;64245;51.282;22.494;2023-03-01T09:43:29;19.83;;;9.05;;
75649;SDS011;64245;51.282;22.494;2023-03-01T09:45:56;27.02;;;11.43;;
75649;SDS011;64245;51.282;22.494;2023-03-01T09:48:26;20.20;;;10.27;;
75649;SDS011;64245;51.282;22.494;2023-03-01T09:50:55;23.58;;;10.80;;
75649;SDS011;64245;51.282;22.494;2023-03-01T09:53:23;23.15;;;10.80;;
75649;SDS011;64245;51.282;22.494;2023-03-01T09:58:52;20.10;;;9.65;;
75649;SDS011;64245;51.282;22.494;2023-03-01T10:04:04;15.32;;;8.15;;
75649;SDS011;64245;51.282;22.494;2023-03-01T10:07:37;20.92;;;9.50;;
75649;SDS011;64245;51.282;22.494;2023-03-01T10:09:40;24.27;;;10.95;;
75649;SDS011;64245;51.282;22.494;2023-03-01T10:12:10;23.38;;;9.70;;
75649;SDS011;64245;51.282;22.494;2023-03-01T10:14:50;19.63;;;9.65;;
75649;SDS011;64245;51.282;22.494;2023-03-01T10:20:14;23.38;;;9.32;;
75649;SDS011;64245;51.282;22.494;2023-03-01T10:22:41;21.45;;;10.45;;
75649;SDS011;64245;51.282;22.494;2023-03-01T10:25:08;17.77;;;6.78;;
75649;SDS011;64245;51.282;22.494;2023-03-01T10:27:51;23.23;;;9.65;;
75649;SDS011;64245;51.282;22.494;2023-03-01T10:30:38;15.60;;;7.07;;
75649;SDS011;64245;51.282;22.494;2023-03-01T10:35:51;19.83;;;9.45;;
75649;SDS011;64245;51.282;22.494;2023-03-01T10:38:18;20.83;;;10.23;;
75649;SDS011;64245;51.282;22.494;2023-03-01T10:40:52;18.23;;;8.68;;
75649;SDS011;64245;51.282;22.494;2023-03-01T10:43:24;17.65;;;8.18;;
75649;SDS011;64245;51.282;22.494;2023-03-01T10:45:51;17.02;;;7.57;;
75649;SDS011;64245;51.282;22.494;2023-03-01T10:48:19;16.17;;;8.00;;
75649;SDS011;64245;51.282;22.494;2023-03-01T10:53:32;16.23;;;7.10;;
75649;SDS011;64245;51.282;22.494;2023-03-01T10:56:07;13.05;;;7.03;;
75649;SDS011;64245;51.282;22.494;2023-03-01T10:58:36;12.05;;;6.15;;
75649;SDS011;64245;51.282;22.494;2023-03-01T11:03:34;14.18;;;6.50;;
75649;SDS011;64245;51.282;22.494;2023-03-01T11:08:43;10.77;;;6.60;;
75649;SDS011;64245;51.282;22.494;2023-03-01T11:11:16;16.73;;;7.97;;
75649;SDS011;64245;51.282;22.494;2023-03-01T11:13:52;18.25;;;9.48;;
75649;SDS011;64245;51.282;22.494;2023-03-01T11:16:24;17.45;;;7.93;;
75649;SDS011;64245;51.282;22.494;2023-03-01T11:18:56;19.80;;;9.40;;
75649;SDS011;64245;51.282;22.494;2023-03-01T11:21:24;17.75;;;9.35;;
75649;SDS011;64245;51.282;22.494;2023-03-01T11:23:52;17.95;;;9.32;;
75649;SDS011;64245;51.282;22.494;2023-03-01T11:26:18;20.30;;;10.38;;
75649;SDS011;64245;51.282;22.494;2023-03-01T11:28:46;21.80;;;9.40;;
75649;SDS011;64245;51.282;22.494;2023-03-01T11:31:18;14.23;;;8.23;;
75649;SDS011;64245;51.282;22.494;2023-03-01T11:33:55;20.75;;;9.73;;
75649;SDS011;64245;51.282;22.494;2023-03-01T11:36:32;17.83;;;8.50;;
75649;SDS011;64245;51.282;22.494;2023-03-01T11:39:05;21.85;;;9.30;;
75649;SDS011;64245;51.282;22.494;2023-03-01T11:41:51;16.20;;;9.60;;
75649;SDS011;64245;51.282;22.494;2023-03-01T11:44:25;16.48;;;8.68;;
75649;SDS011;64245;51.282;22.494;2023-03-01T11:55:35;19.65;;;9.00;;
75649;SDS011;64245;51.282;22.494;2023-03-01T11:58:20;15.98;;;8.20;;
75649;SDS011;64245;51.282;22.494;2023-03-01T12:06:26;19.38;;;8.20;;
75649;SDS011;64245;51.282;22.494;2023-03-01T12:17:53;14.90;;;8.25;;
75649;SDS011;64245;51.282;22.494;2023-03-01T12:23:16;18.52;;;9.00;;
75649;SDS011;64245;51.282;22.494;2023-03-01T12:26:10;17.83;;;8.65;;
75649;SDS011;64245;51.282;22.494;2023-03-01T12:31:35;16.15;;;8.98;;
75649;SDS011;64245;51.282;22.494;2023-03-01T12:34:47;19.30;;;9.15;;
75649;SDS011;64245;51.282;22.494;2023-03-01T12:40:20;15.65;;;7.50;;
75649;SDS011;64245;51.282;22.494;2023-03-01T12:42:58;17.50;;;8.13;;
75649;SDS011;64245;51.282;22.494;2023-03-01T12:51:08;16.52;;;8.63;;
75649;SDS011;64245;51.282;22.494;2023-03-01T12:53:45;18.83;;;8.45;;
75649;SDS011;64245;51.282;22.494;2023-03-01T12:56:23;16.77;;;8.25;;
75649;SDS011;64245;51.282;22.494;2023-03-01T13:01:42;15.82;;;8.73;;
75649;SDS011;64245;51.282;22.494;2023-03-01T13:04:12;17.42;;;9.00;;
75649;SDS011;64245;51.282;22.494;2023-03-01T13:20:51;15.32;;;7.30;;
75649;SDS011;64245;51.282;22.494;2023-03-01T13:28:36;16.15;;;8.52;;
75649;SDS011;64245;51.282;22.494;2023-03-01T13:31:10;16.02;;;8.02;;
75649;SDS011;64245;51.282;22.494;2023-03-01T13:33:59;18.85;;;8.75;;
75649;SDS011;64245;51.282;22.494;2023-03-01T13:44:21;18.20;;;8.18;;
75649;SDS011;64245;51.282;22.494;2023-03-01T13:47:31;15.23;;;7.85;;
75649;SDS011;64245;51.282;22.494;2023-03-01T13:49:51;16.10;;;8.02;;
75649;SDS011;64245;51.282;22.494;2023-03-01T13:55:03;15.13;;;7.18;;
75649;SDS011;64245;51.282;22.494;2023-03-01T13:57:35;13.65;;;7.18;;
75649;SDS011;64245;51.282;22.494;2023-03-01T14:00:04;14.20;;;7.43;;
75649;SDS011;64245;51.282;22.494;2023-03-01T14:02:31;14.98;;;7.68;;
75649;SDS011;64245;51.282;22.494;2023-03-01T14:04:58;14.82;;;7.75;;
75649;SDS011;64245;51.282;22.494;2023-03-01T14:07:25;17.15;;;7.43;;
75649;SDS011;64245;51.282;22.494;2023-03-01T14:09:56;13.95;;;7.32;;
75649;SDS011;64245;51.282;22.494;2023-03-01T14:15:27;12.27;;;6.18;;
75649;SDS011;64245;51.282;22.494;2023-03-01T14:18:03;13.32;;;6.90;;
75649;SDS011;64245;51.282;22.494;2023-03-01T14:20:37;13.63;;;7.18;;
75649;SDS011;64245;51.282;22.494;2023-03-01T14:23:10;13.20;;;6.55;;
75649;SDS011;64245;51.282;22.494;2023-03-01T14:25:38;14.57;;;6.82;;
75649;SDS011;64245;51.282;22.494;2023-03-01T14:28:19;14.13;;;6.85;;
75649;SDS011;64245;51.282;22.494;2023-03-01T14:30:49;13.48;;;6.78;;
75649;SDS011;64245;51.282;22.494;2023-03-01T14:33:21;20.15;;;7.50;;
75649;SDS011;64245;51.282;22.494;2023-03-01T14:36:09;13.57;;;6.82;;
75649;SDS011;64245;51.282;22.494;2023-03-01T14:38:42;14.15;;;6.75;;
75649;SDS011;64245;51.282;22.494;2023-03-01T14:41:16;12.48;;;5.75;;
75649;SDS011;64245;51.282;22.494;2023-03-01T14:46:19;13.60;;;6.35;;
75649;SDS011;64245;51.282;22.494;2023-03-01T14:48:48;14.02;;;7.05;;
75649;SDS011;64245;51.282;22.494;2023-03-01T14:51:16;11.52;;;6.55;;
75649;SDS011;64245;51.282;22.494;2023-03-01T14:53:41;12.75;;;6.28;;
75649;SDS011;64245;51.282;22.494;2023-03-01T14:56:14;12.93;;;6.28;;
75649;SDS011;64245;51.282;22.494;2023-03-01T14:58:42;15.00;;;6.22;;
75649;SDS011;64245;51.282;22.494;2023-03-01T15:01:11;11.35;;;5.97;;
75649;SDS011;64245;51.282;22.494;2023-03-01T15:03:43;14.23;;;6.43;;
75649;SDS011;64245;51.282;22.494;2023-03-01T15:06:14;11.55;;;5.90;;
75649;SDS011;64245;51.282;22.494;2023-03-01T15:08:44;12.52;;;5.93;;
75649;SDS011;64245;51.282;22.494;2023-03-01T15:13:39;12.77;;;6.68;;
75649;SDS011;64245;51.282;22.494;2023-03-01T15:16:09;12.07;;;6.30;;
75649;SDS011;64245;51.282;22.494;2023-03-01T15:18:37;13.15;;;6.15;;
75649;SDS011;64245;51.282;22.494;2023-03-01T15:21:10;13.05;;;6.53;;
75649;SDS011;64245;51.282;22.494;2023-03-01T15:23:47;17.05;;;7.03;;
75649;SDS011;64245;51.282;22.494;2023-03-01T15:26:22;12.40;;;6.13;;
75649;SDS011;64245;51.282;22.494;2023-03-01T15:28:57;13.60;;;6.13;;
75649;SDS011;64245;51.282;22.494;2023-03-01T15:34:19;12.18;;;5.60;;
75649;SDS011;64245;51.282;22.494;2023-03-01T15:36:47;14.73;;;6.25;;
75649;SDS011;64245;51.282;22.494;2023-03-01T15:39:30;13.13;;;6.70;;
75649;SDS011;64245;51.282;22.494;2023-03-01T15:45:07;14.55;;;7.45;;
75649;SDS011;64245;51.282;22.494;2023-03-01T15:47:54;17.23;;;7.45;;
75649;SDS011;64245;51.282;22.494;2023-03-01T15:50:27;17.38;;;8.80;;
75649;SDS011;64245;51.282;22.494;2023-03-01T15:52:55;20.25;;;8.68;;
75649;SDS011;64245;51.282;22.494;2023-03-01T15:55:23;22.48;;;10.68;;
75649;SDS011;64245;51.282;22.494;2023-03-01T15:58:13;25.65;;;11.70;;
75649;SDS011;64245;51.282;22.494;2023-03-01T16:00:47;36.85;;;17.45;;
75649;SDS011;64245;51.282;22.494;2023-03-01T16:03:17;31.88;;;15.73;;
75649;SDS011;64245;51.282;22.494;2023-03-01T16:05:47;34.95;;;16.20;;
75649;SDS011;64245;51.282;22.494;2023-03-01T16:08:16;40.45;;;16.05;;
75649;SDS011;64245;51.282;22.494;2023-03-01T16:10:43;39.03;;;16.17;;
75649;SDS011;64245;51.282;22.494;2023-03-01T16:13:12;34.70;;;14.77;;
75649;SDS011;64245;51.282;22.494;2023-03-01T16:15:39;42.97;;;17.73;;
75649;SDS011;64245;51.282;22.494;2023-03-01T16:18:05;43.92;;;18.23;;
75649;SDS011;64245;51.282;22.494;2023-03-01T16:20:33;50.40;;;19.15;;
75649;SDS011;64245;51.282;22.494;2023-03-01T16:23:03;44.97;;;19.13;;
75649;SDS011;64245;51.282;22.494;2023-03-01T16:25:30;55.33;;;20.85;;
75649;SDS011;64245;51.282;22.494;2023-03-01T16:27:58;55.92;;;23.15;;
75649;SDS011;64245;51.282;22.494;2023-03-01T16:30:26;54.03;;;20.77;;
75649;SDS011;64245;51.282;22.494;2023-03-01T16:32:52;50.33;;;20.83;;
75649;SDS011;64245;51.282;22.494;2023-03-01T16:35:19;58.85;;;22.20;;